Other Surface Observations
Issued by NWS Great Falls, MT

Home | Current Version | Previous Version | Text Only | Print | Product List | Glossary On
Versions: 1 2 3 4 5 6 7 8 9 10 11 12 13 14 15 16 17 18 19 20 21 22 23 24 25 26 27 28 29 30 31 32 33 34 35 36 37 38 39 40 41 42 43 44 45 46 47 48 49 50
000
SXUS55 KTFX 170644
OSOTFX
AREA AWOS OBSERVATIONS
NATIONAL WEATHER SERVICE GREAT FALLS MT
1244 AM MDT TUE OCT 17 2017

METAR KPWD 170645Z AUTO 22003KT 10SM 13/M02 A2985 RMK PLENTYWOOD
METAR K1S3 170645Z AUTO 00000KT 14/M05 A3000 RMK FORSYTH
METAR KS71 170645Z AUTO 23020G29KT 10SM 18/M05 A2983 RMK CHINOOK
METAR K38S 170645Z AUTO 17004KT 10SM 08/M04 A3020 RMK DEER LODGE
METAR K3U3 170645Z AUTO 20007KT 10SM 03/M05 A3021 RMK ANACONDA
METAR K6S5 170645Z AUTO 17011KT 10SM 11/M04 A3017 RMK HAMILTON
METAR KS59 170645Z AUTO 00000KT 10SM 04/01 A3006 RMK LIBBY
METAR K88M 170645Z AUTO 10SM 09/M02 A3002 RMK EUREKA



USA.gov is the U.S. government's official web portal to all federal, state and local government web resources and services.